sensor_id;sensor_type;location;lat;lon;timestamp;P1;durP1;ratioP1;P2;durP2;ratioP2
79229;SDS011;68663;49.122;17.544;2024-03-23T00:53:25;4.00;;;3.40;;
79229;SDS011;68663;49.122;17.544;2024-03-23T00:55:51;3.45;;;2.80;;
79229;SDS011;68663;49.122;17.544;2024-03-23T00:58:17;3.27;;;2.90;;
79229;SDS011;68663;49.122;17.544;2024-03-23T01:00:42;4.20;;;3.20;;
79229;SDS011;68663;49.122;17.544;2024-03-23T01:03:08;3.97;;;2.57;;
79229;SDS011;68663;49.122;17.544;2024-03-23T01:05:33;4.07;;;3.67;;
79229;SDS011;68663;49.122;17.544;2024-03-23T01:07:59;3.72;;;3.25;;
79229;SDS011;68663;49.122;17.544;2024-03-23T01:10:24;4.10;;;2.67;;
79229;SDS011;68663;49.122;17.544;2024-03-23T01:12:49;4.38;;;3.20;;
79229;SDS011;68663;49.122;17.544;2024-03-23T01:15:15;3.53;;;2.70;;
79229;SDS011;68663;49.122;17.544;2024-03-23T01:17:40;3.30;;;3.00;;
79229;SDS011;68663;49.122;17.544;2024-03-23T01:20:06;3.27;;;2.80;;
79229;SDS011;68663;49.122;17.544;2024-03-23T01:22:32;3.47;;;2.80;;
79229;SDS011;68663;49.122;17.544;2024-03-23T01:24:58;3.60;;;2.83;;
79229;SDS011;68663;49.122;17.544;2024-03-23T01:27:23;3.60;;;2.78;;
79229;SDS011;68663;49.122;17.544;2024-03-23T01:29:49;3.30;;;2.65;;
79229;SDS011;68663;49.122;17.544;2024-03-23T01:32:14;3.10;;;2.70;;
79229;SDS011;68663;49.122;17.544;2024-03-23T01:34:40;3.63;;;2.73;;
79229;SDS011;68663;49.122;17.544;2024-03-23T01:37:05;3.97;;;3.25;;
79229;SDS011;68663;49.122;17.544;2024-03-23T01:39:30;4.03;;;2.75;;
79229;SDS011;68663;49.122;17.544;2024-03-23T01:41:56;3.90;;;3.00;;
79229;SDS011;68663;49.122;17.544;2024-03-23T01:44:21;3.70;;;2.67;;
79229;SDS011;68663;49.122;17.544;2024-03-23T01:46:46;3.00;;;2.55;;
79229;SDS011;68663;49.122;17.544;2024-03-23T01:49:12;3.00;;;2.70;;
79229;SDS011;68663;49.122;17.544;2024-03-23T01:51:38;3.30;;;2.85;;
79229;SDS011;68663;49.122;17.544;2024-03-23T01:54:04;3.42;;;2.60;;
79229;SDS011;68663;49.122;17.544;2024-03-23T01:56:34;3.72;;;2.85;;
79229;SDS011;68663;49.122;17.544;2024-03-23T01:59:03;3.30;;;2.90;;
79229;SDS011;68663;49.122;17.544;2024-03-23T02:01:30;3.85;;;3.03;;
79229;SDS011;68663;49.122;17.544;2024-03-23T02:03:57;3.60;;;2.70;;
79229;SDS011;68663;49.122;17.544;2024-03-23T02:06:23;3.00;;;2.70;;
79229;SDS011;68663;49.122;17.544;2024-03-23T02:08:49;3.65;;;2.78;;
79229;SDS011;68663;49.122;17.544;2024-03-23T02:11:14;3.22;;;2.78;;
79229;SDS011;68663;49.122;17.544;2024-03-23T02:13:40;3.53;;;2.97;;
79229;SDS011;68663;49.122;17.544;2024-03-23T02:16:05;3.13;;;2.83;;
79229;SDS011;68663;49.122;17.544;2024-03-23T02:18:32;3.33;;;2.65;;
79229;SDS011;68663;49.122;17.544;2024-03-23T02:20:57;3.08;;;2.33;;
79229;SDS011;68663;49.122;17.544;2024-03-23T02:23:23;3.42;;;2.42;;
79229;SDS011;68663;49.122;17.544;2024-03-23T02:25:49;3.25;;;2.95;;
79229;SDS011;68663;49.122;17.544;2024-03-23T02:28:15;2.95;;;2.65;;
79229;SDS011;68663;49.122;17.544;2024-03-23T02:30:40;3.53;;;2.90;;
79229;SDS011;68663;49.122;17.544;2024-03-23T02:33:06;3.55;;;2.90;;
79229;SDS011;68663;49.122;17.544;2024-03-23T02:35:31;3.55;;;2.65;;
79229;SDS011;68663;49.122;17.544;2024-03-23T02:37:57;2.85;;;2.55;;
79229;SDS011;68663;49.122;17.544;2024-03-23T02:40:25;3.37;;;3.03;;
79229;SDS011;68663;49.122;17.544;2024-03-23T02:42:51;2.72;;;2.40;;
79229;SDS011;68663;49.122;17.544;2024-03-23T02:45:17;3.03;;;2.60;;
79229;SDS011;68663;49.122;17.544;2024-03-23T02:47:42;3.97;;;3.00;;
79229;SDS011;68663;49.122;17.544;2024-03-23T02:50:08;3.17;;;2.47;;
79229;SDS011;68663;49.122;17.544;2024-03-23T02:52:34;2.83;;;2.53;;
79229;SDS011;68663;49.122;17.544;2024-03-23T02:55:00;2.65;;;2.35;;
79229;SDS011;68663;49.122;17.544;2024-03-23T02:57:27;2.83;;;2.42;;
79229;SDS011;68663;49.122;17.544;2024-03-23T02:59:52;3.22;;;2.67;;
79229;SDS011;68663;49.122;17.544;2024-03-23T03:02:18;2.88;;;2.58;;
79229;SDS011;68663;49.122;17.544;2024-03-23T03:04:43;4.28;;;2.40;;
79229;SDS011;68663;49.122;17.544;2024-03-23T03:07:09;3.00;;;2.35;;
79229;SDS011;68663;49.122;17.544;2024-03-23T03:09:34;3.38;;;2.67;;
79229;SDS011;68663;49.122;17.544;2024-03-23T03:12:00;3.80;;;2.80;;
79229;SDS011;68663;49.122;17.544;2024-03-23T03:14:29;2.88;;;2.42;;
79229;SDS011;68663;49.122;17.544;2024-03-23T03:16:54;4.18;;;2.88;;
79229;SDS011;68663;49.122;17.544;2024-03-23T03:19:20;3.40;;;2.90;;
79229;SDS011;68663;49.122;17.544;2024-03-23T03:21:45;2.88;;;2.55;;
79229;SDS011;68663;49.122;17.544;2024-03-23T03:24:12;2.92;;;2.63;;
79229;SDS011;68663;49.122;17.544;2024-03-23T03:26:38;2.90;;;2.40;;
79229;SDS011;68663;49.122;17.544;2024-03-23T03:29:03;2.97;;;2.50;;
79229;SDS011;68663;49.122;17.544;2024-03-23T03:31:28;3.10;;;2.60;;
79229;SDS011;68663;49.122;17.544;2024-03-23T03:33:54;2.77;;;2.30;;
79229;SDS011;68663;49.122;17.544;2024-03-23T03:36:19;3.00;;;2.63;;
79229;SDS011;68663;49.122;17.544;2024-03-23T03:38:45;3.00;;;2.63;;
79229;SDS011;68663;49.122;17.544;2024-03-23T03:41:10;3.10;;;2.47;;
79229;SDS011;68663;49.122;17.544;2024-03-23T03:43:36;2.90;;;2.20;;
79229;SDS011;68663;49.122;17.544;2024-03-23T03:46:01;2.95;;;2.58;;
79229;SDS011;68663;49.122;17.544;2024-03-23T03:48:27;3.67;;;2.40;;
79229;SDS011;68663;49.122;17.544;2024-03-23T03:50:53;2.55;;;2.35;;
79229;SDS011;68663;49.122;17.544;2024-03-23T03:53:19;2.97;;;2.55;;
79229;SDS011;68663;49.122;17.544;2024-03-23T03:55:44;3.22;;;2.65;;
79229;SDS011;68663;49.122;17.544;2024-03-23T03:58:10;3.05;;;2.28;;
79229;SDS011;68663;49.122;17.544;2024-03-23T04:00:35;2.70;;;2.38;;
79229;SDS011;68663;49.122;17.544;2024-03-23T04:03:01;3.10;;;2.70;;
79229;SDS011;68663;49.122;17.544;2024-03-23T04:05:26;2.83;;;2.53;;
79229;SDS011;68663;49.122;17.544;2024-03-23T04:07:52;2.80;;;2.35;;
79229;SDS011;68663;49.122;17.544;2024-03-23T04:10:18;2.60;;;2.17;;
79229;SDS011;68663;49.122;17.544;2024-03-23T04:12:43;2.70;;;2.40;;
79229;SDS011;68663;49.122;17.544;2024-03-23T04:15:09;3.33;;;2.40;;
79229;SDS011;68663;49.122;17.544;2024-03-23T04:17:35;2.90;;;2.47;;
79229;SDS011;68663;49.122;17.544;2024-03-23T04:20:01;3.45;;;2.50;;
79229;SDS011;68663;49.122;17.544;2024-03-23T04:22:28;2.95;;;2.53;;
79229;SDS011;68663;49.122;17.544;2024-03-23T04:24:57;2.88;;;2.33;;
79229;SDS011;68663;49.122;17.544;2024-03-23T04:27:25;2.53;;;2.03;;
79229;SDS011;68663;49.122;17.544;2024-03-23T04:29:50;3.00;;;2.38;;
79229;SDS011;68663;49.122;17.544;2024-03-23T04:32:17;3.00;;;2.45;;
79229;SDS011;68663;49.122;17.544;2024-03-23T04:34:43;3.03;;;2.60;;
79229;SDS011;68663;49.122;17.544;2024-03-23T04:37:09;2.40;;;1.90;;
79229;SDS011;68663;49.122;17.544;2024-03-23T04:39:38;2.72;;;2.20;;
79229;SDS011;68663;49.122;17.544;2024-03-23T04:42:03;2.75;;;2.13;;
79229;SDS011;68663;49.122;17.544;2024-03-23T04:44:30;3.55;;;2.33;;
79229;SDS011;68663;49.122;17.544;2024-03-23T04:46:56;2.65;;;2.30;;
79229;SDS011;68663;49.122;17.544;2024-03-23T04:49:22;2.83;;;2.40;;
79229;SDS011;68663;49.122;17.544;2024-03-23T04:51:47;3.10;;;2.20;;
79229;SDS011;68663;49.122;17.544;2024-03-23T04:54:13;3.15;;;2.25;;
79229;SDS011;68663;49.122;17.544;2024-03-23T04:56:38;2.63;;;2.08;;
79229;SDS011;68663;49.122;17.544;2024-03-23T04:59:04;3.42;;;2.33;;
79229;SDS011;68663;49.122;17.544;2024-03-23T05:01:30;2.80;;;2.15;;
79229;SDS011;68663;49.122;17.544;2024-03-23T05:03:56;2.47;;;2.05;;
79229;SDS011;68663;49.122;17.544;2024-03-23T05:06:22;2.85;;;2.25;;
79229;SDS011;68663;49.122;17.544;2024-03-23T05:08:48;2.85;;;2.40;;
79229;SDS011;68663;49.122;17.544;2024-03-23T05:11:13;2.70;;;2.28;;
79229;SDS011;68663;49.122;17.544;2024-03-23T05:13:39;3.50;;;2.40;;
79229;SDS011;68663;49.122;17.544;2024-03-23T05:16:04;2.50;;;2.20;;
79229;SDS011;68663;49.122;17.544;2024-03-23T05:18:30;2.65;;;2.00;;
79229;SDS011;68663;49.122;17.544;2024-03-23T05:20:57;2.40;;;2.10;;
79229;SDS011;68663;49.122;17.544;2024-03-23T05:23:23;2.55;;;2.22;;
79229;SDS011;68663;49.122;17.544;2024-03-23T05:25:49;2.75;;;2.38;;
79229;SDS011;68663;49.122;17.544;2024-03-23T05:28:14;2.47;;;2.00;;
79229;SDS011;68663;49.122;17.544;2024-03-23T05:30:39;2.87;;;2.33;;
79229;SDS011;68663;49.122;17.544;2024-03-23T05:33:05;2.70;;;2.40;;
79229;SDS011;68663;49.122;17.544;2024-03-23T05:35:31;3.13;;;2.28;;
79229;SDS011;68663;49.122;17.544;2024-03-23T05:37:57;2.75;;;2.30;;
79229;SDS011;68663;49.122;17.544;2024-03-23T05:40:23;2.83;;;2.30;;
79229;SDS011;68663;49.122;17.544;2024-03-23T05:42:49;2.85;;;2.25;;
79229;SDS011;68663;49.122;17.544;2024-03-23T05:45:18;6.75;;;2.40;;
79229;SDS011;68663;49.122;17.544;2024-03-23T05:47:43;2.92;;;2.40;;
79229;SDS011;68663;49.122;17.544;2024-03-23T05:50:09;3.25;;;2.22;;
79229;SDS011;68663;49.122;17.544;2024-03-23T05:52:37;3.13;;;2.33;;
79229;SDS011;68663;49.122;17.544;2024-03-23T05:55:03;2.95;;;2.40;;
79229;SDS011;68663;49.122;17.544;2024-03-23T05:57:29;2.30;;;2.00;;
79229;SDS011;68663;49.122;17.544;2024-03-23T05:59:54;3.33;;;2.40;;
79229;SDS011;68663;49.122;17.544;2024-03-23T06:02:19;2.72;;;2.05;;
79229;SDS011;68663;49.122;17.544;2024-03-23T06:04:45;2.70;;;2.33;;
79229;SDS011;68663;49.122;17.544;2024-03-23T06:07:11;4.82;;;2.00;;
79229;SDS011;68663;49.122;17.544;2024-03-23T06:09:39;3.40;;;2.20;;
79229;SDS011;68663;49.122;17.544;2024-03-23T06:12:05;2.78;;;2.40;;
79229;SDS011;68663;49.122;17.544;2024-03-23T06:14:30;2.90;;;2.10;;
79229;SDS011;68663;49.122;17.544;2024-03-23T06:16:56;2.22;;;1.85;;
79229;SDS011;68663;49.122;17.544;2024-03-23T06:19:21;2.77;;;2.10;;
79229;SDS011;68663;49.122;17.544;2024-03-23T06:21:47;2.78;;;1.98;;
79229;SDS011;68663;49.122;17.544;2024-03-23T06:24:12;2.67;;;2.20;;
79229;SDS011;68663;49.122;17.544;2024-03-23T06:26:39;2.75;;;1.92;;
79229;SDS011;68663;49.122;17.544;2024-03-23T06:29:04;3.57;;;1.97;;
79229;SDS011;68663;49.122;17.544;2024-03-23T06:31:30;2.97;;;2.33;;
79229;SDS011;68663;49.122;17.544;2024-03-23T06:33:56;4.25;;;2.08;;
79229;SDS011;68663;49.122;17.544;2024-03-23T06:36:21;3.40;;;2.20;;
79229;SDS011;68663;49.122;17.544;2024-03-23T06:38:47;2.30;;;1.77;;
79229;SDS011;68663;49.122;17.544;2024-03-23T06:41:12;2.70;;;2.10;;
79229;SDS011;68663;49.122;17.544;2024-03-23T06:43:39;2.13;;;1.90;;
79229;SDS011;68663;49.122;17.544;2024-03-23T06:46:04;2.10;;;1.90;;
79229;SDS011;68663;49.122;17.544;2024-03-23T06:48:30;2.33;;;1.70;;
79229;SDS011;68663;49.122;17.544;2024-03-23T06:50:56;2.75;;;2.10;;
79229;SDS011;68663;49.122;17.544;2024-03-23T06:53:22;2.80;;;1.83;;
79229;SDS011;68663;49.122;17.544;2024-03-23T06:55:51;3.97;;;2.42;;
79229;SDS011;68663;49.122;17.544;2024-03-23T06:58:18;2.33;;;1.92;;
79229;SDS011;68663;49.122;17.544;2024-03-23T07:00:48;3.10;;;2.03;;
79229;SDS011;68663;49.122;17.544;2024-03-23T07:03:14;2.55;;;1.92;;
79229;SDS011;68663;49.122;17.544;2024-03-23T07:05:39;3.17;;;1.90;;
79229;SDS011;68663;49.122;17.544;2024-03-23T07:08:05;3.20;;;2.30;;
79229;SDS011;68663;49.122;17.544;2024-03-23T07:10:30;3.00;;;2.22;;
79229;SDS011;68663;49.122;17.544;2024-03-23T07:12:56;3.38;;;1.88;;
79229;SDS011;68663;49.122;17.544;2024-03-23T07:15:21;3.88;;;2.25;;
79229;SDS011;68663;49.122;17.544;2024-03-23T07:17:47;7.23;;;2.40;;
79229;SDS011;68663;49.122;17.544;2024-03-23T07:20:13;3.35;;;1.92;;
79229;SDS011;68663;49.122;17.544;2024-03-23T07:22:38;2.72;;;1.90;;
79229;SDS011;68663;49.122;17.544;2024-03-23T07:25:04;4.22;;;2.03;;
79229;SDS011;68663;49.122;17.544;2024-03-23T07:27:31;2.10;;;1.70;;
79229;SDS011;68663;49.122;17.544;2024-03-23T07:29:57;5.53;;;2.22;;
79229;SDS011;68663;49.122;17.544;2024-03-23T07:32:23;3.28;;;2.30;;
79229;SDS011;68663;49.122;17.544;2024-03-23T07:34:48;3.83;;;1.90;;
79229;SDS011;68663;49.122;17.544;2024-03-23T07:37:14;3.00;;;1.90;;
79229;SDS011;68663;49.122;17.544;2024-03-23T07:39:39;3.35;;;1.67;;
79229;SDS011;68663;49.122;17.544;2024-03-23T07:42:05;3.58;;;1.95;;
79229;SDS011;68663;49.122;17.544;2024-03-23T07:44:31;3.00;;;1.98;;
79229;SDS011;68663;49.122;17.544;2024-03-23T07:46:56;3.60;;;1.90;;
79229;SDS011;68663;49.122;17.544;2024-03-23T07:49:22;2.40;;;1.73;;
79229;SDS011;68663;49.122;17.544;2024-03-23T07:51:47;2.80;;;1.83;;
79229;SDS011;68663;49.122;17.544;2024-03-23T07:54:12;3.85;;;2.38;;
79229;SDS011;68663;49.122;17.544;2024-03-23T07:56:38;5.90;;;2.10;;
79229;SDS011;68663;49.122;17.544;2024-03-23T07:59:03;3.22;;;1.92;;
79229;SDS011;68663;49.122;17.544;2024-03-23T08:01:29;2.85;;;2.17;;
79229;SDS011;68663;49.122;17.544;2024-03-23T08:03:54;4.30;;;2.10;;
79229;SDS011;68663;49.122;17.544;2024-03-23T08:06:20;4.25;;;2.28;;
79229;SDS011;68663;49.122;17.544;2024-03-23T08:08:48;7.68;;;2.60;;
79229;SDS011;68663;49.122;17.544;2024-03-23T08:11:15;5.88;;;2.50;;
79229;SDS011;68663;49.122;17.544;2024-03-23T08:13:41;6.57;;;2.70;;
79229;SDS011;68663;49.122;17.544;2024-03-23T08:16:09;3.38;;;2.33;;
79229;SDS011;68663;49.122;17.544;2024-03-23T08:18:35;3.37;;;2.33;;
79229;SDS011;68663;49.122;17.544;2024-03-23T08:21:01;6.75;;;2.42;;
79229;SDS011;68663;49.122;17.544;2024-03-23T08:23:28;4.40;;;2.03;;
79229;SDS011;68663;49.122;17.544;2024-03-23T08:26:00;3.78;;;2.15;;
79229;SDS011;68663;49.122;17.544;2024-03-23T08:28:26;7.05;;;2.55;;
79229;SDS011;68663;49.122;17.544;2024-03-23T08:30:52;9.02;;;3.22;;
79229;SDS011;68663;49.122;17.544;2024-03-23T08:33:19;27.00;;;6.85;;
79229;SDS011;68663;49.122;17.544;2024-03-23T08:35:57;41.78;;;10.65;;
79229;SDS011;68663;49.122;17.544;2024-03-23T08:38:24;39.45;;;10.10;;
79229;SDS011;68663;49.122;17.544;2024-03-23T08:41:00;36.00;;;10.43;;
79229;SDS011;68663;49.122;17.544;2024-03-23T08:43:42;33.80;;;10.07;;
79229;SDS011;68663;49.122;17.544;2024-03-23T08:48:38;35.58;;;9.23;;
79229;SDS011;68663;49.122;17.544;2024-03-23T08:51:07;31.70;;;9.02;;
79229;SDS011;68663;49.122;17.544;2024-03-23T08:53:34;27.05;;;9.30;;
79229;SDS011;68663;49.122;17.544;2024-03-23T08:56:00;31.33;;;8.55;;
79229;SDS011;68663;49.122;17.544;2024-03-23T08:58:27;23.60;;;7.82;;
79229;SDS011;68663;49.122;17.544;2024-03-23T09:00:55;30.45;;;8.38;;
79229;SDS011;68663;49.122;17.544;2024-03-23T09:03:24;26.35;;;8.73;;
79229;SDS011;68663;49.122;17.544;2024-03-23T09:05:50;20.17;;;7.15;;
79229;SDS011;68663;49.122;17.544;2024-03-23T09:08:16;19.63;;;7.85;;
79229;SDS011;68663;49.122;17.544;2024-03-23T09:10:42;22.15;;;8.10;;
79229;SDS011;68663;49.122;17.544;2024-03-23T09:13:08;23.30;;;7.30;;
79229;SDS011;68663;49.122;17.544;2024-03-23T09:15:34;22.50;;;8.45;;
79229;SDS011;68663;49.122;17.544;2024-03-23T09:18:00;21.75;;;7.82;;
79229;SDS011;68663;49.122;17.544;2024-03-23T09:20:26;23.92;;;7.72;;
79229;SDS011;68663;49.122;17.544;2024-03-23T09:22:51;21.23;;;7.57;;
79229;SDS011;68663;49.122;17.544;2024-03-23T09:25:17;14.85;;;6.82;;
79229;SDS011;68663;49.122;17.544;2024-03-23T09:27:42;22.13;;;8.45;;
79229;SDS011;68663;49.122;17.544;2024-03-23T09:30:08;22.25;;;7.80;;
79229;SDS011;68663;49.122;17.544;2024-03-23T09:32:35;19.30;;;7.75;;
79229;SDS011;68663;49.122;17.544;2024-03-23T09:35:00;17.70;;;7.03;;
79229;SDS011;68663;49.122;17.544;2024-03-23T09:37:26;14.40;;;7.28;;
79229;SDS011;68663;49.122;17.544;2024-03-23T09:39:51;17.95;;;7.63;;
79229;SDS011;68663;49.122;17.544;2024-03-23T09:42:16;16.60;;;7.77;;
79229;SDS011;68663;49.122;17.544;2024-03-23T09:44:42;14.18;;;7.32;;
79229;SDS011;68663;49.122;17.544;2024-03-23T09:47:08;16.50;;;6.75;;
79229;SDS011;68663;49.122;17.544;2024-03-23T09:49:34;15.57;;;6.93;;
79229;SDS011;68663;49.122;17.544;2024-03-23T09:52:01;14.25;;;6.63;;
79229;SDS011;68663;49.122;17.544;2024-03-23T09:54:28;14.15;;;7.03;;
79229;SDS011;68663;49.122;17.544;2024-03-23T09:56:53;16.02;;;7.00;;
79229;SDS011;68663;49.122;17.544;2024-03-23T09:59:18;14.13;;;7.03;;
79229;SDS011;68663;49.122;17.544;2024-03-23T10:01:44;15.55;;;6.97;;
79229;SDS011;68663;49.122;17.544;2024-03-23T10:04:09;15.43;;;7.25;;
79229;SDS011;68663;49.122;17.544;2024-03-23T10:06:35;14.55;;;7.18;;
79229;SDS011;68663;49.122;17.544;2024-03-23T10:09:01;15.25;;;6.72;;
79229;SDS011;68663;49.122;17.544;2024-03-23T10:11:27;15.07;;;6.97;;
79229;SDS011;68663;49.122;17.544;2024-03-23T10:13:54;14.93;;;6.55;;
79229;SDS011;68663;49.122;17.544;2024-03-23T10:16:22;15.60;;;6.63;;
79229;SDS011;68663;49.122;17.544;2024-03-23T10:18:49;16.92;;;6.78;;
79229;SDS011;68663;49.122;17.544;2024-03-23T10:21:15;17.23;;;7.25;;
79229;SDS011;68663;49.122;17.544;2024-03-23T10:23:41;10.35;;;6.43;;
79229;SDS011;68663;49.122;17.544;2024-03-23T10:26:16;13.45;;;6.65;;
79229;SDS011;68663;49.122;17.544;2024-03-23T10:31:18;16.55;;;6.68;;
79229;SDS011;68663;49.122;17.544;2024-03-23T10:33:45;15.75;;;6.53;;
79229;SDS011;68663;49.122;17.544;2024-03-23T10:36:11;12.05;;;6.25;;
79229;SDS011;68663;49.122;17.544;2024-03-23T10:38:38;12.93;;;7.03;;
79229;SDS011;68663;49.122;17.544;2024-03-23T10:41:05;15.23;;;5.95;;
79229;SDS011;68663;49.122;17.544;2024-03-23T10:43:32;10.23;;;5.82;;
79229;SDS011;68663;49.122;17.544;2024-03-23T10:45:58;16.60;;;5.63;;
79229;SDS011;68663;49.122;17.544;2024-03-23T10:48:24;13.00;;;6.30;;
79229;SDS011;68663;49.122;17.544;2024-03-23T10:50:49;13.55;;;6.18;;
79229;SDS011;68663;49.122;17.544;2024-03-23T10:53:14;13.88;;;6.95;;
79229;SDS011;68663;49.122;17.544;2024-03-23T10:55:42;11.82;;;6.22;;
79229;SDS011;68663;49.122;17.544;2024-03-23T10:58:09;14.38;;;6.05;;
79229;SDS011;68663;49.122;17.544;2024-03-23T11:00:37;10.30;;;6.05;;
79229;SDS011;68663;49.122;17.544;2024-03-23T11:05:55;10.57;;;5.63;;
79229;SDS011;68663;49.122;17.544;2024-03-23T11:11:19;9.25;;;5.43;;
79229;SDS011;68663;49.122;17.544;2024-03-23T11:13:49;10.73;;;5.60;;
79229;SDS011;68663;49.122;17.544;2024-03-23T11:16:25;10.00;;;5.43;;
79229;SDS011;68663;49.122;17.544;2024-03-23T11:21:59;11.98;;;5.70;;
79229;SDS011;68663;49.122;17.544;2024-03-23T11:24:25;9.00;;;5.25;;
79229;SDS011;68663;49.122;17.544;2024-03-23T11:26:50;11.77;;;6.07;;
79229;SDS011;68663;49.122;17.544;2024-03-23T11:29:16;9.15;;;4.90;;
79229;SDS011;68663;49.122;17.544;2024-03-23T11:34:12;9.27;;;4.82;;
79229;SDS011;68663;49.122;17.544;2024-03-23T11:36:37;7.72;;;4.90;;
79229;SDS011;68663;49.122;17.544;2024-03-23T11:39:24;9.00;;;5.03;;
79229;SDS011;68663;49.122;17.544;2024-03-23T11:41:52;7.32;;;4.65;;
79229;SDS011;68663;49.122;17.544;2024-03-23T11:44:19;10.98;;;5.32;;
79229;SDS011;68663;49.122;17.544;2024-03-23T11:46:47;7.32;;;5.18;;
79229;SDS011;68663;49.122;17.544;2024-03-23T11:49:19;8.07;;;5.00;;
79229;SDS011;68663;49.122;17.544;2024-03-23T11:51:48;8.93;;;5.47;;
79229;SDS011;68663;49.122;17.544;2024-03-23T11:54:14;8.25;;;4.95;;
79229;SDS011;68663;49.122;17.544;2024-03-23T11:56:40;8.07;;;4.72;;
79229;SDS011;68663;49.122;17.544;2024-03-23T11:59:08;9.77;;;4.88;;
79229;SDS011;68663;49.122;17.544;2024-03-23T12:01:33;9.00;;;4.95;;
79229;SDS011;68663;49.122;17.544;2024-03-23T12:03:59;8.02;;;4.90;;
79229;SDS011;68663;49.122;17.544;2024-03-23T12:06:24;8.10;;;4.27;;
79229;SDS011;68663;49.122;17.544;2024-03-23T12:08:50;7.35;;;4.35;;
79229;SDS011;68663;49.122;17.544;2024-03-23T12:11:16;8.10;;;5.18;;
79229;SDS011;68663;49.122;17.544;2024-03-23T12:13:43;8.13;;;4.53;;
79229;SDS011;68663;49.122;17.544;2024-03-23T12:18:42;8.73;;;4.95;;
79229;SDS011;68663;49.122;17.544;2024-03-23T12:21:09;6.70;;;4.45;;
79229;SDS011;68663;49.122;17.544;2024-03-23T12:23:35;8.50;;;5.03;;
79229;SDS011;68663;49.122;17.544;2024-03-23T12:26:01;6.28;;;4.07;;
79229;SDS011;68663;49.122;17.544;2024-03-23T12:28:26;8.93;;;4.75;;
79229;SDS011;68663;49.122;17.544;2024-03-23T12:30:52;8.25;;;4.63;;
79229;SDS011;68663;49.122;17.544;2024-03-23T12:33:19;6.55;;;4.22;;
79229;SDS011;68663;49.122;17.544;2024-03-23T12:35:44;7.90;;;4.53;;
79229;SDS011;68663;49.122;17.544;2024-03-23T12:38:10;8.90;;;4.95;;
79229;SDS011;68663;49.122;17.544;2024-03-23T12:40:35;7.53;;;4.57;;
79229;SDS011;68663;49.122;17.544;2024-03-23T12:43:01;6.00;;;4.22;;
79229;SDS011;68663;49.122;17.544;2024-03-23T12:45:26;5.68;;;4.25;;
79229;SDS011;68663;49.122;17.544;2024-03-23T12:47:52;7.93;;;3.75;;
79229;SDS011;68663;49.122;17.544;2024-03-23T12:50:20;6.43;;;3.92;;
79229;SDS011;68663;49.122;17.544;2024-03-23T12:52:46;5.45;;;3.97;;
79229;SDS011;68663;49.122;17.544;2024-03-23T12:55:12;6.38;;;4.05;;
79229;SDS011;68663;49.122;17.544;2024-03-23T12:57:37;6.53;;;3.85;;
79229;SDS011;68663;49.122;17.544;2024-03-23T13:00:03;6.82;;;4.15;;
79229;SDS011;68663;49.122;17.544;2024-03-23T13:02:29;7.15;;;4.28;;
79229;SDS011;68663;49.122;17.544;2024-03-23T13:04:55;6.45;;;3.80;;
79229;SDS011;68663;49.122;17.544;2024-03-23T13:07:21;6.93;;;3.95;;
79229;SDS011;68663;49.122;17.544;2024-03-23T13:09:51;9.48;;;4.68;;
79229;SDS011;68663;49.122;17.544;2024-03-23T13:12:18;8.32;;;4.28;;
79229;SDS011;68663;49.122;17.544;2024-03-23T13:14:44;5.38;;;3.63;;
79229;SDS011;68663;49.122;17.544;2024-03-23T13:17:10;8.48;;;4.28;;
79229;SDS011;68663;49.122;17.544;2024-03-23T13:19:36;6.70;;;3.92;;
79229;SDS011;68663;49.122;17.544;2024-03-23T13:22:02;6.43;;;4.30;;
79229;SDS011;68663;49.122;17.544;2024-03-23T13:24:28;5.18;;;3.72;;
79229;SDS011;68663;49.122;17.544;2024-03-23T13:26:54;6.47;;;4.33;;
79229;SDS011;68663;49.122;17.544;2024-03-23T13:29:20;6.32;;;3.78;;
79229;SDS011;68663;49.122;17.544;2024-03-23T13:31:47;5.50;;;3.80;;
79229;SDS011;68663;49.122;17.544;2024-03-23T13:34:13;5.18;;;3.47;;
79229;SDS011;68663;49.122;17.544;2024-03-23T13:36:44;5.50;;;3.65;;
79229;SDS011;68663;49.122;17.544;2024-03-23T13:39:10;5.90;;;4.00;;
79229;SDS011;68663;49.122;17.544;2024-03-23T13:41:54;6.35;;;3.90;;
79229;SDS011;68663;49.122;17.544;2024-03-23T13:44:20;6.13;;;3.75;;
79229;SDS011;68663;49.122;17.544;2024-03-23T13:46:46;7.05;;;4.20;;
79229;SDS011;68663;49.122;17.544;2024-03-23T13:49:30;5.47;;;3.72;;
79229;SDS011;68663;49.122;17.544;2024-03-23T13:51:59;4.40;;;3.08;;
79229;SDS011;68663;49.122;17.544;2024-03-23T13:54:27;7.05;;;4.10;;
79229;SDS011;68663;49.122;17.544;2024-03-23T13:56:56;5.45;;;3.63;;
79229;SDS011;68663;49.122;17.544;2024-03-23T14:01:50;4.20;;;3.22;;
79229;SDS011;68663;49.122;17.544;2024-03-23T14:04:16;6.10;;;3.30;;
79229;SDS011;68663;49.122;17.544;2024-03-23T14:06:42;4.60;;;3.47;;
79229;SDS011;68663;49.122;17.544;2024-03-23T14:11:36;6.10;;;3.75;;
79229;SDS011;68663;49.122;17.544;2024-03-23T14:14:02;5.05;;;3.85;;
79229;SDS011;68663;49.122;17.544;2024-03-23T14:16:28;6.32;;;3.47;;
79229;SDS011;68663;49.122;17.544;2024-03-23T14:18:54;4.47;;;3.08;;
79229;SDS011;68663;49.122;17.544;2024-03-23T14:21:20;4.40;;;3.35;;
79229;SDS011;68663;49.122;17.544;2024-03-23T14:23:45;5.90;;;3.58;;
79229;SDS011;68663;49.122;17.544;2024-03-23T14:26:11;5.32;;;3.00;;
79229;SDS011;68663;49.122;17.544;2024-03-23T14:28:37;4.88;;;3.60;;
79229;SDS011;68663;49.122;17.544;2024-03-23T14:31:02;4.88;;;3.40;;
79229;SDS011;68663;49.122;17.544;2024-03-23T14:33:32;6.97;;;3.22;;
79229;SDS011;68663;49.122;17.544;2024-03-23T14:35:59;5.53;;;3.58;;
79229;SDS011;68663;49.122;17.544;2024-03-23T14:38:24;5.53;;;3.70;;
79229;SDS011;68663;49.122;17.544;2024-03-23T14:40:49;4.70;;;3.45;;
79229;SDS011;68663;49.122;17.544;2024-03-23T14:43:16;4.05;;;2.97;;
79229;SDS011;68663;49.122;17.544;2024-03-23T14:45:49;4.80;;;2.97;;
79229;SDS011;68663;49.122;17.544;2024-03-23T14:48:38;4.22;;;2.47;;
79229;SDS011;68663;49.122;17.544;2024-03-23T14:51:04;5.00;;;3.55;;
79229;SDS011;68663;49.122;17.544;2024-03-23T14:53:30;4.85;;;3.05;;
79229;SDS011;68663;49.122;17.544;2024-03-23T14:55:57;6.43;;;3.60;;
79229;SDS011;68663;49.122;17.544;2024-03-23T14:58:22;5.00;;;3.25;;
79229;SDS011;68663;49.122;17.544;2024-03-23T15:00:49;4.03;;;2.95;;
79229;SDS011;68663;49.122;17.544;2024-03-23T15:03:15;4.55;;;3.08;;
79229;SDS011;68663;49.122;17.544;2024-03-23T15:05:40;5.13;;;2.90;;
79229;SDS011;68663;49.122;17.544;2024-03-23T15:08:06;4.30;;;2.90;;
79229;SDS011;68663;49.122;17.544;2024-03-23T15:10:35;6.25;;;3.80;;
79229;SDS011;68663;49.122;17.544;2024-03-23T15:13:00;4.30;;;2.90;;
79229;SDS011;68663;49.122;17.544;2024-03-23T15:15:25;6.03;;;2.87;;
79229;SDS011;68663;49.122;17.544;2024-03-23T15:17:51;5.53;;;3.33;;
79229;SDS011;68663;49.122;17.544;2024-03-23T15:20:16;4.23;;;3.00;;
79229;SDS011;68663;49.122;17.544;2024-03-23T15:22:42;3.60;;;2.50;;
79229;SDS011;68663;49.122;17.544;2024-03-23T15:25:07;4.28;;;3.10;;
79229;SDS011;68663;49.122;17.544;2024-03-23T15:27:35;4.40;;;2.83;;
79229;SDS011;68663;49.122;17.544;2024-03-23T15:30:01;4.43;;;2.90;;
79229;SDS011;68663;49.122;17.544;2024-03-23T15:32:26;4.20;;;3.28;;
79229;SDS011;68663;49.122;17.544;2024-03-23T15:34:52;3.77;;;3.23;;
79229;SDS011;68663;49.122;17.544;2024-03-23T15:37:17;3.90;;;2.77;;
79229;SDS011;68663;49.122;17.544;2024-03-23T15:39:43;4.60;;;3.08;;
79229;SDS011;68663;49.122;17.544;2024-03-23T15:42:08;4.67;;;3.07;;